createdAt,value
2022-09-06T00:09:15.932Z,100947.67
2022-09-06T00:31:08.879Z,100936.95
2022-09-06T00:52:55.625Z,100930.07
2022-09-06T01:14:58.262Z,100929.84
2022-09-06T01:37:06.367Z,100937.34
2022-09-06T01:59:20.681Z,100936.70
2022-09-06T02:21:07.702Z,100933.77
2022-09-06T02:42:54.295Z,100924.83
2022-09-06T03:04:40.064Z,100918.34
2022-09-06T03:26:25.847Z,100905.26
2022-09-06T03:48:11.756Z,100900.73
2022-09-06T04:09:57.516Z,100899.88
2022-09-06T04:31:43.593Z,100891.23
2022-09-06T04:53:29.489Z,100881.67
2022-09-06T05:15:16.058Z,100894.14
2022-09-06T05:37:01.922Z,100899.21
2022-09-06T05:58:47.951Z,100916.35
2022-09-06T06:20:33.846Z,100916.99
2022-09-06T06:42:19.782Z,100927.75
2022-09-06T07:04:07.321Z,100915.98
2022-09-06T07:25:53.024Z,100915.05
2022-09-06T08:09:44.641Z,100946.30
2022-09-06T08:31:32.183Z,100920.17
2022-09-06T08:53:20.419Z,100904.64
2022-09-06T09:15:11.827Z,100905.39
2022-09-06T09:59:29.051Z,100889.92
2022-09-06T10:21:19.142Z,100866.90
2022-09-06T10:43:09.102Z,100842.77
2022-09-06T11:27:12.845Z,100792.14
2022-09-06T11:49:07.751Z,100790.39
2022-09-06T12:11:06.168Z,100772.98
2022-09-06T12:32:52.631Z,100755.63
2022-09-06T12:54:46.995Z,100747.95
2022-09-06T13:16:38.025Z,100724.29
2022-09-06T13:38:34.793Z,100681.65
2022-09-06T14:00:20.953Z,100660.21
2022-09-06T14:22:07.464Z,100658.36
2022-09-06T14:43:57.258Z,100631.61
2022-09-06T15:05:43.239Z,100622.63
2022-09-06T15:27:30.179Z,100615.84
2022-09-06T15:49:18.224Z,100605.38
2022-09-06T16:11:09.664Z,100581.48
2022-09-06T16:32:55.655Z,100580.23
2022-09-06T16:54:42.087Z,100547.14
2022-09-06T17:16:45.881Z,100535.02
2022-09-06T17:38:32.059Z,100536.29
2022-09-06T18:00:19.312Z,100555.83
2022-09-06T18:22:05.477Z,100579.42
2022-09-06T18:43:52.435Z,100580.36
2022-09-06T19:05:39.310Z,100576.19
2022-09-06T19:27:25.337Z,100575.66
2022-09-06T19:49:11.853Z,100571.11
2022-09-06T20:10:59.797Z,100551.21
2022-09-06T20:32:45.807Z,100536.73
2022-09-06T20:54:31.687Z,100528.80
2022-09-06T21:16:23.318Z,100519.08
2022-09-06T21:38:10.380Z,100526.68
2022-09-06T21:59:56.355Z,100519.38
2022-09-06T22:21:42.483Z,100498.30
2022-09-06T22:43:29.118Z,100481.57
2022-09-06T23:05:15.162Z,100487.98
2022-09-06T23:27:02.458Z,100480.85
2022-09-06T23:48:48.800Z,100463.55
